createdAt,value
2022-11-12T00:01:16.906Z,4.80
2022-11-12T00:03:44.200Z,4.80
2022-11-12T00:06:11.408Z,4.80
2022-11-12T00:08:38.710Z,4.80
2022-11-12T00:11:06.016Z,4.80
2022-11-12T00:13:36.767Z,4.80
2022-11-12T00:16:06.040Z,4.80
2022-11-12T00:18:33.501Z,4.70
2022-11-12T00:21:03.842Z,4.60
2022-11-12T00:23:31.354Z,4.50
2022-11-12T00:26:05.056Z,4.50
2022-11-12T00:28:37.511Z,4.50
2022-11-12T00:31:12.343Z,4.50
2022-11-12T00:33:42.262Z,4.60
2022-11-12T00:36:14.034Z,4.60
2022-11-12T00:38:41.748Z,4.60
2022-11-12T00:41:09.239Z,4.50
2022-11-12T00:43:39.311Z,4.50
2022-11-12T00:46:06.603Z,4.60
2022-11-12T00:48:34.019Z,4.60
2022-11-12T00:51:08.237Z,4.60
2022-11-12T00:53:36.823Z,4.60
2022-11-12T00:56:17.163Z,4.60
2022-11-12T00:58:47.497Z,4.70
2022-11-12T01:01:34.082Z,4.70
2022-11-12T01:04:01.794Z,4.70
2022-11-12T01:06:32.312Z,4.60
2022-11-12T01:09:00.524Z,4.60
2022-11-12T01:11:34.294Z,4.70
2022-11-12T01:14:07.406Z,4.60
2022-11-12T01:16:40.016Z,4.70
2022-11-12T01:19:10.140Z,4.70
2022-11-12T01:21:48.509Z,4.70
2022-11-12T01:24:18.574Z,4.70
2022-11-12T01:26:45.890Z,4.70
2022-11-12T01:29:24.099Z,4.70
2022-11-12T01:31:51.583Z,4.60
2022-11-12T01:34:21.989Z,4.60
2022-11-12T01:36:49.296Z,4.60
2022-11-12T01:39:18.013Z,4.60
2022-11-12T01:41:46.047Z,4.60
2022-11-12T01:44:17.199Z,4.60
2022-11-12T01:50:32.909Z,4.50
2022-11-12T01:53:06.795Z,4.50
2022-11-12T01:55:45.803Z,4.50
2022-11-12T01:58:18.952Z,4.50
2022-11-12T02:00:48.218Z,4.50
2022-11-12T02:03:24.434Z,4.50
2022-11-12T02:06:10.422Z,4.50
2022-11-12T02:08:39.049Z,4.50
2022-11-12T02:11:24.903Z,4.40
2022-11-12T02:14:05.534Z,4.50
2022-11-12T02:16:46.421Z,4.50
2022-11-12T02:19:16.427Z,4.50
2022-11-12T02:21:44.194Z,4.50
2022-11-12T02:24:14.466Z,4.50
2022-11-12T02:27:03.375Z,4.50
2022-11-12T02:29:30.896Z,4.50
2022-11-12T02:32:00.990Z,4.50
2022-11-12T02:34:30.513Z,4.50
2022-11-12T02:36:58.214Z,4.50
2022-11-12T02:39:25.674Z,4.50
2022-11-12T02:41:54.215Z,4.50
2022-11-12T02:44:21.932Z,4.50
2022-11-12T02:46:49.329Z,4.40
2022-11-12T02:49:20.256Z,4.40
2022-11-12T02:51:47.588Z,4.40
2022-11-12T02:54:16.873Z,4.30
2022-11-12T02:56:46.490Z,4.30
2022-11-12T03:00:15.394Z,4.30
2022-11-12T03:02:59.247Z,4.40
2022-11-12T03:08:13.009Z,4.30
2022-11-12T03:10:40.788Z,4.30
2022-11-12T03:13:08.249Z,4.30
2022-11-12T03:15:44.078Z,4.30
2022-11-12T03:18:11.559Z,4.30
2022-11-12T03:20:39.606Z,4.30
2022-11-12T03:23:09.489Z,4.20
2022-11-12T03:25:37.161Z,4.20
2022-11-12T03:28:12.515Z,4.30
2022-11-12T03:30:42.311Z,4.30
2022-11-12T03:33:11.882Z,4.30
2022-11-12T03:35:40.621Z,4.30
2022-11-12T03:38:23.322Z,4.40
2022-11-12T03:40:53.159Z,4.40
2022-11-12T03:43:20.907Z,4.40
2022-11-12T03:45:57.116Z,4.50
2022-11-12T03:48:24.788Z,4.40
2022-11-12T03:50:59.587Z,4.50
2022-11-12T03:53:27.499Z,4.50
2022-11-12T03:55:55.263Z,4.50
2022-11-12T03:58:25.391Z,4.50
2022-11-12T04:00:58.781Z,4.40
2022-11-12T04:03:26.140Z,4.40
2022-11-12T04:06:14.341Z,4.30
2022-11-12T04:08:41.860Z,4.30
2022-11-12T04:11:15.500Z,4.40
2022-11-12T04:13:48.055Z,4.30
2022-11-12T04:16:40.095Z,4.40
2022-11-12T04:19:29.183Z,4.30
2022-11-12T04:22:05.694Z,4.40
2022-11-12T04:25:00.718Z,4.40
2022-11-12T04:27:33.687Z,4.30
2022-11-12T04:30:21.747Z,4.40
2022-11-12T04:32:51.861Z,4.30
2022-11-12T04:35:26.069Z,4.30
2022-11-12T04:37:53.706Z,4.30
2022-11-12T04:40:45.235Z,4.30
2022-11-12T04:43:36.347Z,4.30
2022-11-12T04:46:05.637Z,4.30
2022-11-12T04:48:35.591Z,4.30
2022-11-12T04:51:32.064Z,4.30
2022-11-12T04:54:02.864Z,4.30
2022-11-12T04:56:35.108Z,4.40
2022-11-12T04:59:05.418Z,4.30
2022-11-12T05:01:36.333Z,4.30
2022-11-12T05:04:04.080Z,4.30
2022-11-12T05:06:51.197Z,4.30
2022-11-12T05:09:19.818Z,4.30
2022-11-12T05:11:49.566Z,4.30
2022-11-12T05:14:27.337Z,4.30
2022-11-12T05:16:54.767Z,4.30
2022-11-12T05:19:22.326Z,4.30
2022-11-12T05:22:17.440Z,4.30
2022-11-12T05:24:49.628Z,4.30
2022-11-12T05:27:21.335Z,4.20
2022-11-12T05:29:49.181Z,4.30
2022-11-12T05:32:24.349Z,4.30
2022-11-12T05:34:52.276Z,4.30
2022-11-12T05:37:25.118Z,4.30
2022-11-12T05:39:52.521Z,4.30
2022-11-12T05:42:19.748Z,4.30
2022-11-12T05:44:48.225Z,4.30
2022-11-12T05:47:15.596Z,4.20
2022-11-12T05:49:43.121Z,4.20
2022-11-12T05:52:12.977Z,4.20
2022-11-12T05:54:40.724Z,4.30
2022-11-12T05:57:07.984Z,4.20
2022-11-12T05:59:38.255Z,4.30
2022-11-12T06:02:08.047Z,4.20
2022-11-12T06:04:47.966Z,4.30
2022-11-12T06:07:15.657Z,4.30
2022-11-12T06:09:43.216Z,4.30
2022-11-12T06:12:11.436Z,4.40
2022-11-12T06:14:38.570Z,4.40
2022-11-12T06:17:05.606Z,4.40
2022-11-12T06:19:32.882Z,4.50
2022-11-12T06:22:02.302Z,4.40
2022-11-12T06:24:34.914Z,4.30
2022-11-12T06:27:02.344Z,4.30
2022-11-12T06:29:30.339Z,4.40
2022-11-12T06:32:00.302Z,4.30
2022-11-12T06:34:31.500Z,4.30
2022-11-12T06:36:59.283Z,4.30
2022-11-12T06:39:30.268Z,4.30
2022-11-12T06:41:57.900Z,4.30
2022-11-12T06:44:26.522Z,4.30
2022-11-12T06:46:53.921Z,4.20
2022-11-12T06:49:21.075Z,4.20
2022-11-12T06:51:50.786Z,4.10
2022-11-12T06:54:19.032Z,4.10
2022-11-12T06:56:46.238Z,4.20
2022-11-12T06:59:13.662Z,4.20
2022-11-12T07:01:40.686Z,4.30
2022-11-12T07:04:14.805Z,4.30
2022-11-12T07:06:41.813Z,4.20
2022-11-12T07:09:10.115Z,4.20
2022-11-12T07:11:36.996Z,4.20
2022-11-12T07:14:13.081Z,4.20
2022-11-12T07:16:42.656Z,4.30
2022-11-12T07:19:11.685Z,4.30
2022-11-12T07:21:38.603Z,4.30
2022-11-12T07:24:09.940Z,4.20
2022-11-12T07:26:39.143Z,4.30
2022-11-12T07:29:24.949Z,4.40
2022-11-12T07:32:00.040Z,4.60
2022-11-12T07:34:26.974Z,4.70
2022-11-12T07:37:04.993Z,4.70
2022-11-12T07:39:31.926Z,4.80
2022-11-12T07:41:58.832Z,4.90
2022-11-12T07:44:32.880Z,5.00
2022-11-12T07:46:59.844Z,5.10
2022-11-12T07:49:26.770Z,4.90
2022-11-12T07:51:53.666Z,5.00
2022-11-12T07:54:20.632Z,5.10
2022-11-12T07:56:47.646Z,5.20
2022-11-12T07:59:14.556Z,5.10
2022-11-12T08:01:43.604Z,5.10
2022-11-12T08:04:12.220Z,5.10
2022-11-12T08:06:39.378Z,5.20
2022-11-12T08:09:08.430Z,5.20
2022-11-12T08:11:37.074Z,5.20
2022-11-12T08:14:04.307Z,5.20
2022-11-12T08:16:31.614Z,5.30
2022-11-12T08:18:58.724Z,5.30
2022-11-12T08:21:25.788Z,5.40
2022-11-12T08:23:52.788Z,5.40
2022-11-12T08:26:22.081Z,5.50
2022-11-12T08:28:56.542Z,5.50
2022-11-12T08:31:23.845Z,5.60
2022-11-12T08:33:50.765Z,5.60
2022-11-12T08:36:18.709Z,5.60
2022-11-12T08:38:46.151Z,5.70
2022-11-12T08:41:15.079Z,5.70
2022-11-12T08:43:42.684Z,5.90
2022-11-12T08:46:10.428Z,6.00
2022-11-12T08:48:39.935Z,6.00
2022-11-12T08:51:07.595Z,6.00
2022-11-12T08:53:34.668Z,6.10
2022-11-12T08:56:02.034Z,6.20
2022-11-12T08:58:29.734Z,6.20
2022-11-12T09:00:57.887Z,6.20
2022-11-12T09:03:26.524Z,6.20
2022-11-12T09:05:54.242Z,6.30
2022-11-12T09:08:25.792Z,6.20
2022-11-12T09:10:53.360Z,6.30
2022-11-12T09:13:21.221Z,6.40
2022-11-12T09:15:48.479Z,6.30
2022-11-12T09:18:18.029Z,6.50
2022-11-12T09:20:45.393Z,6.60
2022-11-12T09:23:14.862Z,6.70
2022-11-12T09:25:42.547Z,6.70
2022-11-12T09:28:19.319Z,6.80
2022-11-12T09:30:49.319Z,7.00
2022-11-12T09:33:18.952Z,7.20
2022-11-12T09:35:47.127Z,7.30
2022-11-12T09:38:15.434Z,7.30
2022-11-12T09:40:51.411Z,7.20
2022-11-12T09:43:31.885Z,7.00
2022-11-12T09:46:28.378Z,7.10
2022-11-12T09:49:25.006Z,7.10
2022-11-12T09:52:18.107Z,7.10
2022-11-12T09:54:46.977Z,7.30
2022-11-12T09:57:14.441Z,7.50
2022-11-12T09:59:42.983Z,7.50
2022-11-12T10:02:33.050Z,7.50
2022-11-12T10:05:24.408Z,7.50
2022-11-12T10:08:06.452Z,7.30
2022-11-12T10:10:44.505Z,7.30
2022-11-12T10:13:26.336Z,7.30
2022-11-12T10:16:23.526Z,7.40
2022-11-12T10:19:09.146Z,7.50
2022-11-12T10:21:54.835Z,7.60
2022-11-12T10:24:24.308Z,7.70
2022-11-12T10:26:53.450Z,7.70
2022-11-12T10:29:36.458Z,7.70
2022-11-12T10:32:03.982Z,7.60
2022-11-12T10:34:36.045Z,7.50
2022-11-12T10:37:12.469Z,7.60
2022-11-12T10:39:42.848Z,7.80
2022-11-12T10:42:18.214Z,8.00
2022-11-12T10:44:46.260Z,8.10
2022-11-12T10:47:26.698Z,8.10
2022-11-12T10:50:12.755Z,8.20
2022-11-12T10:52:39.893Z,8.20
2022-11-12T10:55:28.592Z,8.20
2022-11-12T10:58:10.824Z,8.20
2022-11-12T11:00:54.638Z,8.30
2022-11-12T11:03:28.301Z,8.40
2022-11-12T11:05:57.466Z,8.60
2022-11-12T11:08:41.384Z,8.70
2022-11-12T11:11:17.133Z,8.80
2022-11-12T11:13:45.781Z,8.90
2022-11-12T11:16:22.020Z,8.80
2022-11-12T11:18:55.359Z,8.70
2022-11-12T11:21:31.570Z,8.70
2022-11-12T11:24:11.188Z,8.60
2022-11-12T11:27:00.660Z,8.70
2022-11-12T11:29:44.629Z,8.90
2022-11-12T11:32:23.662Z,9.00
2022-11-12T11:35:01.938Z,9.00
2022-11-12T11:37:31.129Z,8.90
2022-11-12T11:40:22.584Z,9.00
2022-11-12T11:43:08.578Z,9.00
2022-11-12T11:46:04.200Z,9.10
2022-11-12T11:49:02.431Z,9.30
2022-11-12T11:52:20.474Z,9.40
2022-11-12T11:55:04.422Z,9.50
2022-11-12T11:57:45.989Z,9.60
2022-11-12T12:00:25.657Z,9.50
2022-11-12T12:03:19.329Z,9.30
2022-11-12T12:06:05.681Z,9.10
2022-11-12T12:09:06.802Z,9.00
2022-11-12T12:12:26.578Z,9.00
2022-11-12T12:14:53.450Z,9.10
2022-11-12T12:17:57.938Z,9.20
2022-11-12T12:20:40.092Z,9.30
2022-11-12T12:23:26.154Z,9.40
2022-11-12T12:26:00.424Z,9.50
2022-11-12T12:28:50.388Z,9.50
2022-11-12T12:31:24.446Z,9.50
2022-11-12T12:33:55.073Z,9.60
2022-11-12T12:36:42.390Z,9.80
2022-11-12T12:39:23.802Z,10.00
2022-11-12T12:42:24.462Z,10.20
2022-11-12T12:45:00.784Z,10.20
2022-11-12T12:47:43.687Z,10.20
2022-11-12T12:50:16.400Z,10.30
2022-11-12T12:53:16.718Z,10.40
2022-11-12T12:55:50.480Z,10.50
2022-11-12T12:58:32.373Z,10.50
2022-11-12T13:01:04.179Z,10.60
2022-11-12T13:03:45.915Z,10.60
2022-11-12T13:06:24.298Z,10.70
2022-11-12T13:08:53.552Z,10.70
2022-11-12T13:12:00.927Z,10.60
2022-11-12T13:14:52.296Z,10.50
2022-11-12T13:17:45.885Z,10.40
2022-11-12T13:20:30.949Z,10.30
2022-11-12T13:22:58.085Z,10.20
2022-11-12T13:25:30.250Z,10.20
2022-11-12T13:28:03.298Z,10.20
2022-11-12T13:30:30.194Z,10.20
2022-11-12T13:32:59.187Z,10.20
2022-11-12T13:35:39.682Z,10.10
2022-11-12T13:38:09.450Z,10.20
2022-11-12T13:40:38.944Z,10.10
2022-11-12T13:43:43.002Z,10.10
2022-11-12T13:46:10.985Z,10.10
2022-11-12T13:48:48.582Z,10.00
2022-11-12T13:51:37.704Z,10.10
2022-11-12T13:54:27.278Z,10.00
2022-11-12T13:56:54.398Z,10.10
2022-11-12T13:59:24.109Z,10.00
2022-11-12T14:01:51.619Z,9.90
2022-11-12T14:04:21.185Z,9.90
2022-11-12T14:06:54.190Z,9.80
2022-11-12T14:09:52.451Z,9.80
2022-11-12T14:12:25.554Z,9.70
2022-11-12T14:15:07.503Z,9.70
2022-11-12T14:18:11.507Z,9.70
2022-11-12T14:20:42.139Z,9.70
2022-11-12T14:23:11.991Z,9.60
2022-11-12T14:25:49.104Z,9.60
2022-11-12T14:28:36.770Z,9.50
2022-11-12T14:31:04.723Z,9.40
2022-11-12T14:33:32.649Z,9.30
2022-11-12T14:36:05.465Z,9.30
2022-11-12T14:38:42.476Z,9.20
2022-11-12T14:41:15.446Z,9.10
2022-11-12T14:43:54.951Z,9.00
2022-11-12T14:46:40.239Z,9.00
2022-11-12T14:49:17.493Z,8.90
2022-11-12T14:51:53.038Z,8.80
2022-11-12T14:54:40.766Z,8.80
2022-11-12T14:57:18.051Z,8.70
2022-11-12T14:59:45.166Z,8.60
2022-11-12T15:02:53.958Z,8.60
2022-11-12T15:05:22.294Z,8.50
2022-11-12T15:07:54.253Z,8.50
2022-11-12T15:10:41.129Z,8.40
2022-11-12T15:13:24.094Z,8.40
2022-11-12T15:15:58.741Z,8.30
2022-11-12T15:18:29.620Z,8.20
2022-11-12T15:21:20.543Z,8.00
2022-11-12T15:24:09.255Z,7.90
2022-11-12T15:26:40.708Z,7.80
2022-11-12T15:29:23.630Z,7.70
2022-11-12T15:31:53.623Z,7.50
2022-11-12T15:34:41.853Z,7.50
2022-11-12T15:37:19.726Z,7.30
2022-11-12T15:39:59.409Z,7.30
2022-11-12T15:42:37.511Z,7.20
2022-11-12T15:45:16.927Z,7.20
2022-11-12T15:47:44.652Z,7.20
2022-11-12T15:50:18.135Z,7.10
2022-11-12T15:52:45.904Z,7.10
2022-11-12T15:55:13.793Z,7.00
2022-11-12T15:57:49.797Z,6.90
2022-11-12T16:00:25.402Z,6.90
2022-11-12T16:02:59.523Z,6.80
2022-11-12T16:05:26.900Z,6.70
2022-11-12T16:07:54.140Z,6.60
2022-11-12T16:10:21.323Z,6.50
2022-11-12T16:12:48.944Z,6.40
2022-11-12T16:15:18.625Z,6.30
2022-11-12T16:17:46.580Z,6.30
2022-11-12T16:20:23.084Z,6.30
2022-11-12T16:22:51.215Z,6.20
2022-11-12T16:25:21.759Z,6.20
2022-11-12T16:27:54.567Z,6.30
2022-11-12T16:30:25.765Z,6.40
2022-11-12T16:32:53.227Z,6.40
2022-11-12T16:35:20.469Z,6.50
2022-11-12T16:37:48.063Z,6.50
2022-11-12T16:40:21.471Z,6.60
2022-11-12T16:42:48.530Z,6.60
2022-11-12T16:45:17.998Z,6.70
2022-11-12T16:47:56.205Z,6.70
2022-11-12T16:50:27.498Z,6.70
2022-11-12T16:52:54.826Z,6.70
2022-11-12T16:55:22.301Z,6.70
2022-11-12T16:57:49.390Z,6.70
2022-11-12T17:00:18.705Z,6.70
2022-11-12T17:02:50.659Z,6.70
2022-11-12T17:05:23.011Z,6.70
2022-11-12T17:07:54.832Z,6.60
2022-11-12T17:10:25.559Z,6.60
2022-11-12T17:12:53.095Z,6.60
2022-11-12T17:15:20.802Z,6.60
2022-11-12T17:17:47.881Z,6.50
2022-11-12T17:20:14.979Z,6.50
2022-11-12T17:22:42.031Z,6.50
2022-11-12T17:25:09.460Z,6.50
2022-11-12T17:27:36.660Z,6.40
2022-11-12T17:30:04.789Z,6.40
2022-11-12T17:32:32.483Z,6.30
2022-11-12T17:34:59.575Z,6.30
2022-11-12T17:37:26.604Z,6.20
2022-11-12T17:39:53.609Z,6.10
2022-11-12T17:42:20.718Z,6.00
2022-11-12T17:44:47.869Z,6.00
2022-11-12T17:47:14.947Z,6.00
2022-11-12T17:49:42.546Z,6.00
2022-11-12T17:52:09.672Z,6.10
2022-11-12T17:54:36.823Z,6.10
2022-11-12T17:57:04.403Z,6.10
2022-11-12T17:59:31.566Z,6.10
2022-11-12T18:01:58.677Z,6.00
2022-11-12T18:04:29.856Z,6.00
2022-11-12T18:06:58.340Z,6.00
2022-11-12T18:09:25.625Z,6.00
2022-11-12T18:11:56.956Z,6.00
2022-11-12T18:14:26.224Z,6.00
2022-11-12T18:16:53.515Z,5.90
2022-11-12T18:19:22.882Z,6.00
2022-11-12T18:21:49.878Z,5.90
2022-11-12T18:24:17.829Z,6.00
2022-11-12T18:26:44.800Z,6.00
2022-11-12T18:29:12.878Z,5.90
2022-11-12T18:31:40.798Z,5.90
2022-11-12T18:34:15.006Z,6.00
2022-11-12T18:36:42.116Z,5.90
2022-11-12T18:39:09.280Z,5.80
2022-11-12T18:41:36.535Z,5.70
2022-11-12T18:44:03.772Z,5.70
2022-11-12T18:46:30.801Z,5.80
2022-11-12T18:48:58.026Z,5.80
2022-11-12T18:51:25.190Z,5.70
2022-11-12T18:53:52.252Z,5.60
2022-11-12T18:56:22.101Z,5.70
2022-11-12T18:58:49.626Z,5.70
2022-11-12T19:01:21.116Z,5.70
2022-11-12T19:03:52.427Z,5.70
2022-11-12T19:06:20.135Z,5.70
2022-11-12T19:08:47.602Z,5.70
2022-11-12T19:11:16.800Z,5.60
2022-11-12T19:13:44.020Z,5.60
2022-11-12T19:16:17.089Z,5.60
2022-11-12T19:18:47.005Z,5.60
2022-11-12T19:21:17.159Z,5.70
2022-11-12T19:23:44.367Z,5.70
2022-11-12T19:26:13.882Z,5.70
2022-11-12T19:28:41.721Z,5.70
2022-11-12T19:31:13.900Z,5.70
2022-11-12T19:33:41.059Z,5.60
2022-11-12T19:36:10.759Z,5.50
2022-11-12T19:38:38.040Z,5.50
2022-11-12T19:41:19.344Z,5.50
2022-11-12T19:43:47.047Z,5.40
2022-11-12T19:46:14.701Z,5.40
2022-11-12T19:48:42.333Z,5.40
2022-11-12T19:51:11.082Z,5.40
2022-11-12T19:53:44.864Z,5.30
2022-11-12T19:56:14.353Z,5.30
2022-11-12T19:58:45.378Z,5.20
2022-11-12T20:01:15.217Z,5.10
2022-11-12T20:03:42.489Z,5.10
2022-11-12T20:06:14.341Z,5.10
2022-11-12T20:08:42.157Z,5.10
2022-11-12T20:11:10.265Z,5.20
2022-11-12T20:13:37.944Z,5.20
2022-11-12T20:16:20.957Z,5.10
2022-11-12T20:18:56.027Z,5.00
2022-11-12T20:21:26.988Z,4.90
2022-11-12T20:23:54.344Z,5.00
2022-11-12T20:26:21.599Z,5.00
2022-11-12T20:28:49.195Z,5.00
2022-11-12T20:31:21.250Z,5.00
2022-11-12T20:33:51.855Z,5.00
2022-11-12T20:36:21.821Z,5.00
2022-11-12T20:38:53.569Z,5.00
2022-11-12T20:41:23.414Z,5.10
2022-11-12T20:43:54.976Z,5.10
2022-11-12T20:46:22.189Z,5.10
2022-11-12T20:48:49.323Z,5.20
2022-11-12T20:51:24.764Z,5.20
2022-11-12T20:54:00.050Z,5.10
2022-11-12T20:56:30.390Z,5.00
2022-11-12T20:58:59.409Z,5.00
2022-11-12T21:01:28.845Z,4.90
2022-11-12T21:03:57.119Z,4.90
2022-11-12T21:06:26.558Z,4.80
2022-11-12T21:08:54.129Z,4.80
2022-11-12T21:11:22.942Z,4.80
2022-11-12T21:13:50.482Z,4.80
2022-11-12T21:16:18.514Z,4.80
2022-11-12T21:18:45.631Z,4.80
2022-11-12T21:21:18.507Z,4.80
2022-11-12T21:23:47.247Z,4.80
2022-11-12T21:26:22.868Z,4.80
2022-11-12T21:28:54.800Z,4.90
2022-11-12T21:31:27.172Z,4.90
2022-11-12T21:33:58.305Z,5.00
2022-11-12T21:36:27.961Z,5.00
2022-11-12T21:38:55.238Z,4.90
2022-11-12T21:41:28.018Z,4.90
2022-11-12T21:43:55.564Z,4.80
2022-11-12T21:46:29.267Z,4.70
2022-11-12T21:48:57.269Z,4.60
2022-11-12T21:51:26.641Z,4.60
2022-11-12T21:53:55.696Z,4.60
2022-11-12T21:56:23.319Z,4.60
2022-11-12T21:58:50.872Z,4.60
2022-11-12T22:01:23.313Z,4.60
2022-11-12T22:03:51.378Z,4.60
2022-11-12T22:06:19.443Z,4.50
2022-11-12T22:08:46.830Z,4.50
2022-11-12T22:11:16.254Z,4.40
2022-11-12T22:13:43.659Z,4.40
2022-11-12T22:16:13.422Z,4.40
2022-11-12T22:18:40.874Z,4.50
2022-11-12T22:21:13.893Z,4.50
2022-11-12T22:23:41.006Z,4.60
2022-11-12T22:26:11.841Z,4.60
2022-11-12T22:28:39.166Z,4.50
2022-11-12T22:31:29.377Z,4.60
2022-11-12T22:33:58.571Z,4.60
2022-11-12T22:36:27.985Z,4.50
2022-11-12T22:38:56.136Z,4.50
2022-11-12T22:41:30.988Z,4.40
2022-11-12T22:44:00.663Z,4.40
2022-11-12T22:46:33.712Z,4.40
2022-11-12T22:49:02.068Z,4.30
2022-11-12T22:51:31.306Z,4.20
2022-11-12T22:54:00.888Z,4.10
2022-11-12T22:56:28.963Z,4.00
2022-11-12T22:58:56.348Z,3.90
2022-11-12T23:01:24.721Z,3.90
2022-11-12T23:03:54.436Z,3.90
2022-11-12T23:06:22.096Z,3.90
2022-11-12T23:08:49.453Z,3.90
2022-11-12T23:11:18.801Z,3.90
2022-11-12T23:13:46.627Z,3.80
2022-11-12T23:16:19.329Z,3.70
2022-11-12T23:18:46.878Z,3.70
2022-11-12T23:21:16.788Z,3.80
2022-11-12T23:23:44.244Z,3.70
2022-11-12T23:26:21.057Z,3.70
2022-11-12T23:28:48.545Z,3.70
2022-11-12T23:31:24.196Z,3.60
2022-11-12T23:33:53.366Z,3.60
2022-11-12T23:36:21.893Z,3.70
2022-11-12T23:38:49.356Z,3.70
2022-11-12T23:41:18.872Z,3.60
2022-11-12T23:43:46.175Z,3.60
2022-11-12T23:46:13.479Z,3.60
2022-11-12T23:48:40.968Z,3.60
2022-11-12T23:51:22.168Z,3.60
2022-11-12T23:53:49.501Z,3.60
2022-11-12T23:56:18.988Z,3.60
2022-11-12T23:58:46.475Z,3.60
